Main page
METAR-TAF:

METAR-TAF

Airports :

Kulob, Tajikistan

Kulob Airport

latitude: 37-59-18N, longitude: 069-48-18E, elevation: 699 m

Current weather observation

The report was made 16 minutes ago, at 02:30 UTC
Wind 2 kt from variable directions
Temperature 30°C
Humidity 27%
Pressure 1005 hPa
Visibility 10 km or more

METAR: UTDK 240230Z VRB01MPS 9999 NSC 30/09 Q1005 R01/09//70 RMK QFE697/0929

Time: 07:46 (02:46 UTC)

Forecast

The report was made 2 hours and 46 minutes ago, at 00:00 UTC
Forecast valid from 24 at 01 UTC to 24 at 10 UTC
Wind 10 kt from the North/Northeast
Visibility: 6000 m
Few clouds at a height of 6600 ft
Scattered clouds at a height of 15000 ft
Temporary
from 24 at 01 UTC to 24 at 10 UTC
Wind 4 kt from variable directions

TAF: UTDK 240000Z 2401/2410 03005MPS 6000 FEW066 SCT150 TEMPO 2401/2410 VRB02MPS

Weather observations and forecasts of more than 4000 airports (METAR and TAF reports).

The available stations are represented by yellow and red dots on the map.

Hover mouse over dot to see the name of the station.

Then click to see weather observations and forecasts.

To change the map : click on the green buttons with a black cross to zoom in, on the green button with a dash to zoom out, or on the green arrows for adjacent maps.


METAR-TAF: